sensor_id;sensor_type;location;lat;lon;timestamp;P1;durP1;ratioP1;P2;durP2;ratioP2
31730;SDS011;18310;55.586;12.286;2023-09-18T00:01:56;7.68;;;3.17;;
31730;SDS011;18310;55.586;12.286;2023-09-18T00:05:01;8.55;;;3.63;;
31730;SDS011;18310;55.586;12.286;2023-09-18T00:08:04;7.60;;;2.70;;
31730;SDS011;18310;55.586;12.286;2023-09-18T00:11:07;8.63;;;2.77;;
31730;SDS011;18310;55.586;12.286;2023-09-18T00:14:11;9.40;;;3.50;;
31730;SDS011;18310;55.586;12.286;2023-09-18T00:17:21;10.52;;;2.95;;
31730;SDS011;18310;55.586;12.286;2023-09-18T00:20:27;7.28;;;3.35;;
31730;SDS011;18310;55.586;12.286;2023-09-18T00:23:30;10.45;;;3.45;;
31730;SDS011;18310;55.586;12.286;2023-09-18T00:26:34;8.60;;;3.70;;
31730;SDS011;18310;55.586;12.286;2023-09-18T00:29:37;5.78;;;3.38;;
31730;SDS011;18310;55.586;12.286;2023-09-18T00:32:41;7.40;;;2.60;;
31730;SDS011;18310;55.586;12.286;2023-09-18T00:35:49;9.65;;;3.30;;
31730;SDS011;18310;55.586;12.286;2023-09-18T00:38:53;10.18;;;3.38;;
31730;SDS011;18310;55.586;12.286;2023-09-18T00:41:56;7.15;;;3.13;;
31730;SDS011;18310;55.586;12.286;2023-09-18T00:44:59;7.13;;;3.22;;
31730;SDS011;18310;55.586;12.286;2023-09-18T00:48:03;9.23;;;3.13;;
31730;SDS011;18310;55.586;12.286;2023-09-18T00:51:08;9.50;;;3.03;;
31730;SDS011;18310;55.586;12.286;2023-09-18T00:54:11;8.05;;;2.75;;
31730;SDS011;18310;55.586;12.286;2023-09-18T00:57:21;10.45;;;3.00;;
31730;SDS011;18310;55.586;12.286;2023-09-18T01:00:24;6.82;;;3.22;;
31730;SDS011;18310;55.586;12.286;2023-09-18T01:03:27;5.95;;;2.95;;
31730;SDS011;18310;55.586;12.286;2023-09-18T01:06:32;7.85;;;3.58;;
31730;SDS011;18310;55.586;12.286;2023-09-18T01:09:36;9.00;;;2.95;;
31730;SDS011;18310;55.586;12.286;2023-09-18T01:12:39;11.40;;;3.50;;
31730;SDS011;18310;55.586;12.286;2023-09-18T01:15:48;9.15;;;2.90;;
31730;SDS011;18310;55.586;12.286;2023-09-18T01:18:56;8.50;;;3.15;;
31730;SDS011;18310;55.586;12.286;2023-09-18T01:22:00;9.00;;;3.28;;
31730;SDS011;18310;55.586;12.286;2023-09-18T01:25:05;8.27;;;3.35;;
31730;SDS011;18310;55.586;12.286;2023-09-18T01:28:09;6.93;;;3.22;;
31730;SDS011;18310;55.586;12.286;2023-09-18T01:31:12;8.52;;;3.45;;
31730;SDS011;18310;55.586;12.286;2023-09-18T01:34:15;6.93;;;3.00;;
31730;SDS011;18310;55.586;12.286;2023-09-18T01:37:20;10.50;;;3.28;;
31730;SDS011;18310;55.586;12.286;2023-09-18T01:40:26;6.80;;;2.92;;
31730;SDS011;18310;55.586;12.286;2023-09-18T01:43:30;10.63;;;3.15;;
31730;SDS011;18310;55.586;12.286;2023-09-18T01:46:33;12.15;;;3.15;;
31730;SDS011;18310;55.586;12.286;2023-09-18T01:49:39;6.47;;;3.05;;
31730;SDS011;18310;55.586;12.286;2023-09-18T01:52:44;11.27;;;3.55;;
31730;SDS011;18310;55.586;12.286;2023-09-18T01:55:48;7.40;;;3.20;;
31730;SDS011;18310;55.586;12.286;2023-09-18T01:58:52;6.88;;;3.38;;
31730;SDS011;18310;55.586;12.286;2023-09-18T02:01:55;10.90;;;3.22;;
31730;SDS011;18310;55.586;12.286;2023-09-18T02:05:39;9.85;;;3.35;;
31730;SDS011;18310;55.586;12.286;2023-09-18T02:08:43;7.63;;;2.92;;
31730;SDS011;18310;55.586;12.286;2023-09-18T02:11:47;6.77;;;3.47;;
31730;SDS011;18310;55.586;12.286;2023-09-18T02:14:50;6.55;;;3.72;;
31730;SDS011;18310;55.586;12.286;2023-09-18T02:17:53;8.63;;;3.73;;
31730;SDS011;18310;55.586;12.286;2023-09-18T02:20:58;7.50;;;3.72;;
31730;SDS011;18310;55.586;12.286;2023-09-18T02:24:01;6.45;;;3.50;;
31730;SDS011;18310;55.586;12.286;2023-09-18T02:27:05;8.77;;;3.50;;
31730;SDS011;18310;55.586;12.286;2023-09-18T02:30:08;7.43;;;3.42;;
31730;SDS011;18310;55.586;12.286;2023-09-18T02:36:16;5.63;;;3.17;;
31730;SDS011;18310;55.586;12.286;2023-09-18T02:39:19;9.93;;;3.22;;
31730;SDS011;18310;55.586;12.286;2023-09-18T02:42:25;6.97;;;3.08;;
31730;SDS011;18310;55.586;12.286;2023-09-18T02:45:29;13.27;;;3.60;;
31730;SDS011;18310;55.586;12.286;2023-09-18T02:48:32;10.97;;;4.23;;
31730;SDS011;18310;55.586;12.286;2023-09-18T02:51:37;9.23;;;3.92;;
31730;SDS011;18310;55.586;12.286;2023-09-18T02:54:40;7.57;;;3.90;;
31730;SDS011;18310;55.586;12.286;2023-09-18T02:57:43;8.20;;;3.73;;
31730;SDS011;18310;55.586;12.286;2023-09-18T03:00:47;8.45;;;3.88;;
31730;SDS011;18310;55.586;12.286;2023-09-18T03:03:51;11.15;;;4.35;;
31730;SDS011;18310;55.586;12.286;2023-09-18T03:06:56;8.65;;;4.47;;
31730;SDS011;18310;55.586;12.286;2023-09-18T03:09:59;13.82;;;4.20;;
31730;SDS011;18310;55.586;12.286;2023-09-18T03:13:02;11.27;;;4.32;;
31730;SDS011;18310;55.586;12.286;2023-09-18T03:16:06;10.43;;;3.97;;
31730;SDS011;18310;55.586;12.286;2023-09-18T03:19:09;12.23;;;3.78;;
31730;SDS011;18310;55.586;12.286;2023-09-18T03:22:14;10.07;;;4.50;;
31730;SDS011;18310;55.586;12.286;2023-09-18T03:25:17;7.30;;;3.58;;
31730;SDS011;18310;55.586;12.286;2023-09-18T03:28:20;15.73;;;4.57;;
31730;SDS011;18310;55.586;12.286;2023-09-18T03:31:23;11.77;;;4.93;;
31730;SDS011;18310;55.586;12.286;2023-09-18T03:34:27;8.38;;;4.43;;
31730;SDS011;18310;55.586;12.286;2023-09-18T03:37:31;10.68;;;4.22;;
31730;SDS011;18310;55.586;12.286;2023-09-18T03:40:35;11.18;;;5.22;;
31730;SDS011;18310;55.586;12.286;2023-09-18T03:43:38;10.18;;;4.63;;
31730;SDS011;18310;55.586;12.286;2023-09-18T03:46:41;9.95;;;4.40;;
31730;SDS011;18310;55.586;12.286;2023-09-18T03:49:44;13.10;;;4.22;;
31730;SDS011;18310;55.586;12.286;2023-09-18T03:52:49;13.07;;;4.33;;
31730;SDS011;18310;55.586;12.286;2023-09-18T03:55:52;7.38;;;4.75;;
31730;SDS011;18310;55.586;12.286;2023-09-18T03:58:55;11.93;;;5.28;;
31730;SDS011;18310;55.586;12.286;2023-09-18T04:02:00;11.60;;;5.18;;
31730;SDS011;18310;55.586;12.286;2023-09-18T04:05:05;15.48;;;5.50;;
31730;SDS011;18310;55.586;12.286;2023-09-18T04:08:10;10.48;;;5.28;;
31730;SDS011;18310;55.586;12.286;2023-09-18T04:11:15;12.18;;;5.20;;
31730;SDS011;18310;55.586;12.286;2023-09-18T04:14:18;12.48;;;5.30;;
31730;SDS011;18310;55.586;12.286;2023-09-18T04:17:25;11.43;;;5.70;;
31730;SDS011;18310;55.586;12.286;2023-09-18T04:20:28;12.77;;;5.20;;
31730;SDS011;18310;55.586;12.286;2023-09-18T04:23:33;11.37;;;4.90;;
31730;SDS011;18310;55.586;12.286;2023-09-18T04:26:38;11.80;;;5.25;;
31730;SDS011;18310;55.586;12.286;2023-09-18T04:31:55;12.45;;;5.70;;
31730;SDS011;18310;55.586;12.286;2023-09-18T04:34:59;12.02;;;5.10;;
31730;SDS011;18310;55.586;12.286;2023-09-18T04:38:03;10.57;;;5.47;;
31730;SDS011;18310;55.586;12.286;2023-09-18T04:41:06;14.63;;;6.30;;
31730;SDS011;18310;55.586;12.286;2023-09-18T04:44:10;14.93;;;6.10;;
31730;SDS011;18310;55.586;12.286;2023-09-18T04:47:16;17.55;;;7.38;;
31730;SDS011;18310;55.586;12.286;2023-09-18T04:50:19;9.68;;;6.22;;
31730;SDS011;18310;55.586;12.286;2023-09-18T04:53:22;15.73;;;6.17;;
31730;SDS011;18310;55.586;12.286;2023-09-18T04:56:26;14.02;;;5.90;;
31730;SDS011;18310;55.586;12.286;2023-09-18T04:59:29;12.20;;;6.30;;
31730;SDS011;18310;55.586;12.286;2023-09-18T05:02:35;12.00;;;6.43;;
31730;SDS011;18310;55.586;12.286;2023-09-18T05:05:38;15.15;;;6.95;;
31730;SDS011;18310;55.586;12.286;2023-09-18T05:08:42;19.97;;;6.67;;
31730;SDS011;18310;55.586;12.286;2023-09-18T05:11:45;10.13;;;6.30;;
31730;SDS011;18310;55.586;12.286;2023-09-18T05:14:50;16.65;;;7.03;;
31730;SDS011;18310;55.586;12.286;2023-09-18T05:18:34;14.55;;;6.78;;
31730;SDS011;18310;55.586;12.286;2023-09-18T05:21:38;12.45;;;6.32;;
31730;SDS011;18310;55.586;12.286;2023-09-18T05:24:41;15.88;;;6.68;;
31730;SDS011;18310;55.586;12.286;2023-09-18T05:27:44;12.95;;;7.68;;
31730;SDS011;18310;55.586;12.286;2023-09-18T05:30:47;13.65;;;6.60;;
31730;SDS011;18310;55.586;12.286;2023-09-18T05:33:52;14.70;;;6.10;;
31730;SDS011;18310;55.586;12.286;2023-09-18T05:36:55;19.58;;;7.32;;
31730;SDS011;18310;55.586;12.286;2023-09-18T05:39:58;11.60;;;6.88;;
31730;SDS011;18310;55.586;12.286;2023-09-18T05:43:02;16.05;;;6.97;;
31730;SDS011;18310;55.586;12.286;2023-09-18T05:46:06;14.68;;;7.28;;
31730;SDS011;18310;55.586;12.286;2023-09-18T05:49:10;11.40;;;6.43;;
31730;SDS011;18310;55.586;12.286;2023-09-18T05:52:20;15.52;;;7.07;;
31730;SDS011;18310;55.586;12.286;2023-09-18T05:55:25;11.25;;;7.05;;
31730;SDS011;18310;55.586;12.286;2023-09-18T05:58:29;13.20;;;6.80;;
31730;SDS011;18310;55.586;12.286;2023-09-18T06:01:33;13.15;;;7.90;;
31730;SDS011;18310;55.586;12.286;2023-09-18T06:04:38;16.13;;;7.90;;
31730;SDS011;18310;55.586;12.286;2023-09-18T06:07:41;16.70;;;7.75;;
31730;SDS011;18310;55.586;12.286;2023-09-18T06:10:44;13.97;;;7.27;;
31730;SDS011;18310;55.586;12.286;2023-09-18T06:13:47;15.23;;;8.43;;
31730;SDS011;18310;55.586;12.286;2023-09-18T06:16:51;16.47;;;8.30;;
31730;SDS011;18310;55.586;12.286;2023-09-18T06:19:55;15.82;;;7.72;;
31730;SDS011;18310;55.586;12.286;2023-09-18T06:22:59;16.77;;;8.50;;
31730;SDS011;18310;55.586;12.286;2023-09-18T06:26:02;14.00;;;8.07;;
31730;SDS011;18310;55.586;12.286;2023-09-18T06:29:06;14.30;;;7.38;;
31730;SDS011;18310;55.586;12.286;2023-09-18T06:32:11;12.98;;;7.70;;
31730;SDS011;18310;55.586;12.286;2023-09-18T06:35:17;15.25;;;8.25;;
31730;SDS011;18310;55.586;12.286;2023-09-18T06:38:20;16.90;;;7.95;;
31730;SDS011;18310;55.586;12.286;2023-09-18T06:41:23;12.85;;;7.95;;
31730;SDS011;18310;55.586;12.286;2023-09-18T06:44:27;13.97;;;7.50;;
31730;SDS011;18310;55.586;12.286;2023-09-18T06:47:30;13.35;;;7.63;;
31730;SDS011;18310;55.586;12.286;2023-09-18T06:50:35;15.05;;;7.72;;
31730;SDS011;18310;55.586;12.286;2023-09-18T06:53:40;17.02;;;8.55;;
31730;SDS011;18310;55.586;12.286;2023-09-18T06:56:43;12.87;;;7.93;;
31730;SDS011;18310;55.586;12.286;2023-09-18T06:59:47;15.37;;;8.60;;
31730;SDS011;18310;55.586;12.286;2023-09-18T07:02:51;15.95;;;8.65;;
31730;SDS011;18310;55.586;12.286;2023-09-18T07:05:56;18.63;;;8.32;;
31730;SDS011;18310;55.586;12.286;2023-09-18T07:08:59;17.70;;;8.68;;
31730;SDS011;18310;55.586;12.286;2023-09-18T07:12:05;16.92;;;8.15;;
31730;SDS011;18310;55.586;12.286;2023-09-18T07:15:08;14.52;;;8.55;;
31730;SDS011;18310;55.586;12.286;2023-09-18T07:21:17;14.60;;;8.23;;
31730;SDS011;18310;55.586;12.286;2023-09-18T07:24:20;17.05;;;8.57;;
31730;SDS011;18310;55.586;12.286;2023-09-18T07:27:25;15.32;;;8.95;;
31730;SDS011;18310;55.586;12.286;2023-09-18T07:30:29;18.20;;;10.15;;
31730;SDS011;18310;55.586;12.286;2023-09-18T07:33:32;16.57;;;9.63;;
31730;SDS011;18310;55.586;12.286;2023-09-18T07:36:37;15.65;;;9.15;;
31730;SDS011;18310;55.586;12.286;2023-09-18T07:39:40;17.25;;;9.13;;
31730;SDS011;18310;55.586;12.286;2023-09-18T07:42:45;14.63;;;8.93;;
31730;SDS011;18310;55.586;12.286;2023-09-18T07:45:48;19.77;;;8.57;;
31730;SDS011;18310;55.586;12.286;2023-09-18T07:48:52;17.05;;;9.18;;
31730;SDS011;18310;55.586;12.286;2023-09-18T07:51:57;12.30;;;8.52;;
31730;SDS011;18310;55.586;12.286;2023-09-18T07:55:00;17.50;;;9.00;;
31730;SDS011;18310;55.586;12.286;2023-09-18T07:58:04;16.83;;;9.10;;
31730;SDS011;18310;55.586;12.286;2023-09-18T08:01:07;13.20;;;7.60;;
31730;SDS011;18310;55.586;12.286;2023-09-18T08:04:12;18.83;;;8.82;;
31730;SDS011;18310;55.586;12.286;2023-09-18T08:07:22;12.95;;;8.27;;
31730;SDS011;18310;55.586;12.286;2023-09-18T08:10:26;15.50;;;9.30;;
31730;SDS011;18310;55.586;12.286;2023-09-18T08:13:29;18.60;;;9.25;;
31730;SDS011;18310;55.586;12.286;2023-09-18T08:16:33;15.63;;;8.70;;
31730;SDS011;18310;55.586;12.286;2023-09-18T08:19:36;21.07;;;8.67;;
31730;SDS011;18310;55.586;12.286;2023-09-18T08:22:42;17.15;;;8.77;;
31730;SDS011;18310;55.586;12.286;2023-09-18T08:25:46;15.80;;;8.90;;
31730;SDS011;18310;55.586;12.286;2023-09-18T08:28:50;17.17;;;8.85;;
31730;SDS011;18310;55.586;12.286;2023-09-18T08:31:55;17.80;;;8.93;;
31730;SDS011;18310;55.586;12.286;2023-09-18T08:34:58;20.02;;;8.55;;
31730;SDS011;18310;55.586;12.286;2023-09-18T08:38:04;17.85;;;9.82;;
31730;SDS011;18310;55.586;12.286;2023-09-18T08:41:08;12.95;;;8.25;;
31730;SDS011;18310;55.586;12.286;2023-09-18T08:44:11;16.42;;;8.75;;
31730;SDS011;18310;55.586;12.286;2023-09-18T08:47:15;13.68;;;7.82;;
31730;SDS011;18310;55.586;12.286;2023-09-18T08:50:19;13.70;;;8.25;;
31730;SDS011;18310;55.586;12.286;2023-09-18T08:53:26;15.07;;;7.40;;
31730;SDS011;18310;55.586;12.286;2023-09-18T08:56:29;15.15;;;8.05;;
31730;SDS011;18310;55.586;12.286;2023-09-18T08:59:34;13.38;;;7.95;;
31730;SDS011;18310;55.586;12.286;2023-09-18T09:02:38;11.07;;;7.43;;
31730;SDS011;18310;55.586;12.286;2023-09-18T09:05:41;15.00;;;7.88;;
31730;SDS011;18310;55.586;12.286;2023-09-18T09:08:46;18.00;;;9.27;;
31730;SDS011;18310;55.586;12.286;2023-09-18T09:11:50;15.32;;;8.23;;
31730;SDS011;18310;55.586;12.286;2023-09-18T09:15:01;14.95;;;8.35;;
31730;SDS011;18310;55.586;12.286;2023-09-18T09:18:06;12.52;;;8.38;;
31730;SDS011;18310;55.586;12.286;2023-09-18T09:21:11;12.02;;;8.38;;
31730;SDS011;18310;55.586;12.286;2023-09-18T09:24:16;12.20;;;8.75;;
31730;SDS011;18310;55.586;12.286;2023-09-18T09:27:26;13.85;;;8.18;;
31730;SDS011;18310;55.586;12.286;2023-09-18T09:30:29;19.23;;;8.93;;
31730;SDS011;18310;55.586;12.286;2023-09-18T09:33:32;15.53;;;8.57;;
31730;SDS011;18310;55.586;12.286;2023-09-18T09:39:50;17.23;;;8.88;;
31730;SDS011;18310;55.586;12.286;2023-09-18T09:42:55;12.20;;;8.18;;
31730;SDS011;18310;55.586;12.286;2023-09-18T09:46:03;15.10;;;8.40;;
31730;SDS011;18310;55.586;12.286;2023-09-18T09:49:06;14.15;;;8.27;;
31730;SDS011;18310;55.586;12.286;2023-09-18T09:52:13;13.80;;;7.45;;
31730;SDS011;18310;55.586;12.286;2023-09-18T09:55:25;14.30;;;8.50;;
31730;SDS011;18310;55.586;12.286;2023-09-18T09:58:30;14.50;;;7.93;;
31730;SDS011;18310;55.586;12.286;2023-09-18T10:01:34;18.48;;;8.18;;
31730;SDS011;18310;55.586;12.286;2023-09-18T10:04:38;12.40;;;7.50;;
31730;SDS011;18310;55.586;12.286;2023-09-18T10:07:41;13.23;;;7.30;;
31730;SDS011;18310;55.586;12.286;2023-09-18T10:13:51;11.25;;;7.05;;
31730;SDS011;18310;55.586;12.286;2023-09-18T10:16:59;11.70;;;7.00;;
31730;SDS011;18310;55.586;12.286;2023-09-18T10:20:11;13.73;;;7.82;;
31730;SDS011;18310;55.586;12.286;2023-09-18T10:23:24;11.80;;;7.15;;
31730;SDS011;18310;55.586;12.286;2023-09-18T10:26:35;16.40;;;8.07;;
31730;SDS011;18310;55.586;12.286;2023-09-18T10:29:45;11.98;;;7.00;;
31730;SDS011;18310;55.586;12.286;2023-09-18T10:32:53;12.45;;;7.50;;
31730;SDS011;18310;55.586;12.286;2023-09-18T10:35:57;11.95;;;6.88;;
31730;SDS011;18310;55.586;12.286;2023-09-18T10:39:02;14.30;;;6.90;;
31730;SDS011;18310;55.586;12.286;2023-09-18T10:42:11;16.73;;;7.50;;
31730;SDS011;18310;55.586;12.286;2023-09-18T10:45:17;12.60;;;7.03;;
31730;SDS011;18310;55.586;12.286;2023-09-18T10:48:20;11.32;;;7.75;;
31730;SDS011;18310;55.586;12.286;2023-09-18T10:51:25;11.38;;;7.50;;
31730;SDS011;18310;55.586;12.286;2023-09-18T10:54:29;12.98;;;7.22;;
31730;SDS011;18310;55.586;12.286;2023-09-18T10:57:36;10.98;;;6.75;;
31730;SDS011;18310;55.586;12.286;2023-09-18T11:00:39;12.60;;;7.30;;
31730;SDS011;18310;55.586;12.286;2023-09-18T11:03:44;11.02;;;7.40;;
31730;SDS011;18310;55.586;12.286;2023-09-18T11:07:01;11.27;;;6.50;;
31730;SDS011;18310;55.586;12.286;2023-09-18T11:10:25;12.55;;;6.93;;
31730;SDS011;18310;55.586;12.286;2023-09-18T11:13:30;12.25;;;6.32;;
31730;SDS011;18310;55.586;12.286;2023-09-18T11:16:34;11.25;;;6.15;;
31730;SDS011;18310;55.586;12.286;2023-09-18T11:19:41;13.07;;;6.88;;
31730;SDS011;18310;55.586;12.286;2023-09-18T11:22:48;12.73;;;6.30;;
31730;SDS011;18310;55.586;12.286;2023-09-18T11:25:52;13.88;;;6.20;;
31730;SDS011;18310;55.586;12.286;2023-09-18T11:28:58;10.20;;;6.63;;
31730;SDS011;18310;55.586;12.286;2023-09-18T11:32:41;14.15;;;6.60;;
31730;SDS011;18310;55.586;12.286;2023-09-18T11:35:50;15.70;;;7.28;;
31730;SDS011;18310;55.586;12.286;2023-09-18T11:38:54;14.90;;;7.32;;
31730;SDS011;18310;55.586;12.286;2023-09-18T11:42:07;16.15;;;6.88;;
31730;SDS011;18310;55.586;12.286;2023-09-18T11:45:16;10.68;;;6.13;;
31730;SDS011;18310;55.586;12.286;2023-09-18T11:48:21;10.73;;;7.05;;
31730;SDS011;18310;55.586;12.286;2023-09-18T11:51:26;12.15;;;7.03;;
31730;SDS011;18310;55.586;12.286;2023-09-18T11:54:31;13.45;;;7.30;;
31730;SDS011;18310;55.586;12.286;2023-09-18T11:57:36;9.73;;;6.82;;
31730;SDS011;18310;55.586;12.286;2023-09-18T12:00:40;11.90;;;6.55;;
31730;SDS011;18310;55.586;12.286;2023-09-18T12:03:54;13.80;;;7.15;;
31730;SDS011;18310;55.586;12.286;2023-09-18T12:06:58;13.30;;;6.63;;
31730;SDS011;18310;55.586;12.286;2023-09-18T12:10:04;10.18;;;6.65;;
31730;SDS011;18310;55.586;12.286;2023-09-18T12:13:11;9.90;;;6.22;;
31730;SDS011;18310;55.586;12.286;2023-09-18T12:16:14;13.98;;;6.20;;
31730;SDS011;18310;55.586;12.286;2023-09-18T12:22:26;12.85;;;6.72;;
31730;SDS011;18310;55.586;12.286;2023-09-18T12:25:30;10.93;;;6.82;;
31730;SDS011;18310;55.586;12.286;2023-09-18T12:28:34;12.65;;;6.90;;
31730;SDS011;18310;55.586;12.286;2023-09-18T12:31:38;12.25;;;6.43;;
31730;SDS011;18310;55.586;12.286;2023-09-18T12:34:43;10.30;;;6.37;;
31730;SDS011;18310;55.586;12.286;2023-09-18T12:37:46;8.90;;;6.43;;
31730;SDS011;18310;55.586;12.286;2023-09-18T12:40:50;9.00;;;6.03;;
31730;SDS011;18310;55.586;12.286;2023-09-18T12:43:54;10.18;;;5.57;;
31730;SDS011;18310;55.586;12.286;2023-09-18T12:46:58;9.98;;;5.82;;
31730;SDS011;18310;55.586;12.286;2023-09-18T12:50:03;9.80;;;5.50;;
31730;SDS011;18310;55.586;12.286;2023-09-18T12:53:09;14.05;;;6.75;;
31730;SDS011;18310;55.586;12.286;2023-09-18T12:56:13;10.27;;;5.78;;
31730;SDS011;18310;55.586;12.286;2023-09-18T13:02:26;10.60;;;6.50;;
31730;SDS011;18310;55.586;12.286;2023-09-18T13:05:32;10.85;;;7.10;;
31730;SDS011;18310;55.586;12.286;2023-09-18T13:08:37;11.20;;;6.88;;
31730;SDS011;18310;55.586;12.286;2023-09-18T13:11:51;9.07;;;6.18;;
31730;SDS011;18310;55.586;12.286;2023-09-18T13:14:58;10.48;;;6.55;;
31730;SDS011;18310;55.586;12.286;2023-09-18T13:18:08;12.10;;;6.35;;
31730;SDS011;18310;55.586;12.286;2023-09-18T13:21:14;10.52;;;6.43;;
31730;SDS011;18310;55.586;12.286;2023-09-18T13:24:24;11.23;;;6.68;;
31730;SDS011;18310;55.586;12.286;2023-09-18T13:27:28;11.18;;;6.88;;
31730;SDS011;18310;55.586;12.286;2023-09-18T13:36:47;11.77;;;6.60;;
31730;SDS011;18310;55.586;12.286;2023-09-18T13:39:51;14.45;;;7.45;;
31730;SDS011;18310;55.586;12.286;2023-09-18T13:42:54;13.25;;;6.90;;
31730;SDS011;18310;55.586;12.286;2023-09-18T13:45:58;11.77;;;6.18;;
31730;SDS011;18310;55.586;12.286;2023-09-18T13:49:03;11.83;;;7.10;;
31730;SDS011;18310;55.586;12.286;2023-09-18T13:52:08;12.30;;;6.45;;
31730;SDS011;18310;55.586;12.286;2023-09-18T13:55:11;10.32;;;6.35;;
31730;SDS011;18310;55.586;12.286;2023-09-18T13:58:14;13.50;;;7.40;;
31730;SDS011;18310;55.586;12.286;2023-09-18T14:01:18;12.15;;;6.97;;
31730;SDS011;18310;55.586;12.286;2023-09-18T14:04:22;11.25;;;6.20;;
31730;SDS011;18310;55.586;12.286;2023-09-18T14:07:27;9.10;;;6.70;;
31730;SDS011;18310;55.586;12.286;2023-09-18T14:10:30;9.00;;;6.15;;
31730;SDS011;18310;55.586;12.286;2023-09-18T14:13:35;16.20;;;6.70;;
31730;SDS011;18310;55.586;12.286;2023-09-18T14:16:38;15.23;;;6.95;;
31730;SDS011;18310;55.586;12.286;2023-09-18T14:19:42;12.00;;;6.75;;
31730;SDS011;18310;55.586;12.286;2023-09-18T14:22:47;12.97;;;7.43;;
31730;SDS011;18310;55.586;12.286;2023-09-18T14:25:52;13.38;;;6.85;;
31730;SDS011;18310;55.586;12.286;2023-09-18T14:28:56;13.95;;;7.93;;
31730;SDS011;18310;55.586;12.286;2023-09-18T14:32:00;16.75;;;7.50;;
31730;SDS011;18310;55.586;12.286;2023-09-18T14:35:04;17.75;;;7.82;;
31730;SDS011;18310;55.586;12.286;2023-09-18T14:38:11;15.80;;;7.55;;
31730;SDS011;18310;55.586;12.286;2023-09-18T14:41:16;14.80;;;7.47;;
31730;SDS011;18310;55.586;12.286;2023-09-18T14:44:23;13.85;;;6.88;;
31730;SDS011;18310;55.586;12.286;2023-09-18T14:47:26;11.38;;;7.20;;
31730;SDS011;18310;55.586;12.286;2023-09-18T14:50:30;11.23;;;7.75;;
31730;SDS011;18310;55.586;12.286;2023-09-18T14:53:35;19.97;;;8.37;;
31730;SDS011;18310;55.586;12.286;2023-09-18T14:56:38;11.70;;;7.18;;
31730;SDS011;18310;55.586;12.286;2023-09-18T14:59:42;12.20;;;7.10;;
31730;SDS011;18310;55.586;12.286;2023-09-18T15:02:49;15.07;;;8.20;;
31730;SDS011;18310;55.586;12.286;2023-09-18T15:05:54;17.30;;;7.00;;
31730;SDS011;18310;55.586;12.286;2023-09-18T15:08:59;18.77;;;7.40;;
31730;SDS011;18310;55.586;12.286;2023-09-18T15:12:03;13.18;;;7.47;;
31730;SDS011;18310;55.586;12.286;2023-09-18T15:15:10;14.25;;;7.82;;
31730;SDS011;18310;55.586;12.286;2023-09-18T15:18:13;14.02;;;7.22;;
31730;SDS011;18310;55.586;12.286;2023-09-18T15:21:17;18.00;;;7.28;;
31730;SDS011;18310;55.586;12.286;2023-09-18T15:24:22;12.97;;;7.27;;
31730;SDS011;18310;55.586;12.286;2023-09-18T15:27:26;12.32;;;7.18;;
31730;SDS011;18310;55.586;12.286;2023-09-18T15:30:29;12.38;;;6.63;;
31730;SDS011;18310;55.586;12.286;2023-09-18T15:33:32;15.90;;;7.57;;
31730;SDS011;18310;55.586;12.286;2023-09-18T15:36:36;17.37;;;7.03;;
31730;SDS011;18310;55.586;12.286;2023-09-18T15:39:40;13.77;;;7.33;;
31730;SDS011;18310;55.586;12.286;2023-09-18T15:42:43;13.23;;;7.35;;
31730;SDS011;18310;55.586;12.286;2023-09-18T15:45:49;10.73;;;7.20;;
31730;SDS011;18310;55.586;12.286;2023-09-18T15:48:52;13.30;;;6.53;;
31730;SDS011;18310;55.586;12.286;2023-09-18T15:51:56;17.40;;;7.03;;
31730;SDS011;18310;55.586;12.286;2023-09-18T15:55:01;15.00;;;7.20;;
31730;SDS011;18310;55.586;12.286;2023-09-18T15:58:08;10.80;;;6.25;;
31730;SDS011;18310;55.586;12.286;2023-09-18T16:01:12;11.30;;;7.13;;
31730;SDS011;18310;55.586;12.286;2023-09-18T16:04:17;13.88;;;5.85;;
31730;SDS011;18310;55.586;12.286;2023-09-18T16:07:26;15.55;;;7.20;;
31730;SDS011;18310;55.586;12.286;2023-09-18T16:10:31;14.90;;;6.80;;
31730;SDS011;18310;55.586;12.286;2023-09-18T16:13:34;12.63;;;6.93;;
31730;SDS011;18310;55.586;12.286;2023-09-18T16:16:38;13.50;;;6.78;;
31730;SDS011;18310;55.586;12.286;2023-09-18T16:19:42;11.85;;;6.63;;
31730;SDS011;18310;55.586;12.286;2023-09-18T16:22:45;10.43;;;6.53;;
31730;SDS011;18310;55.586;12.286;2023-09-18T16:25:51;10.10;;;6.18;;
31730;SDS011;18310;55.586;12.286;2023-09-18T16:28:54;10.65;;;6.60;;
31730;SDS011;18310;55.586;12.286;2023-09-18T16:32:44;12.68;;;7.07;;
31730;SDS011;18310;55.586;12.286;2023-09-18T16:35:47;10.20;;;5.97;;
31730;SDS011;18310;55.586;12.286;2023-09-18T16:38:51;9.25;;;6.53;;
31730;SDS011;18310;55.586;12.286;2023-09-18T16:41:55;11.97;;;5.87;;
31730;SDS011;18310;55.586;12.286;2023-09-18T16:44:58;9.82;;;6.07;;
31730;SDS011;18310;55.586;12.286;2023-09-18T16:51:08;7.82;;;5.30;;
31730;SDS011;18310;55.586;12.286;2023-09-18T16:54:12;9.05;;;5.95;;
31730;SDS011;18310;55.586;12.286;2023-09-18T16:57:22;9.25;;;5.90;;
31730;SDS011;18310;55.586;12.286;2023-09-18T17:00:25;11.60;;;5.63;;
31730;SDS011;18310;55.586;12.286;2023-09-18T17:03:30;7.80;;;5.32;;
31730;SDS011;18310;55.586;12.286;2023-09-18T17:06:34;12.80;;;6.03;;
31730;SDS011;18310;55.586;12.286;2023-09-18T17:09:37;7.63;;;5.00;;
31730;SDS011;18310;55.586;12.286;2023-09-18T17:12:41;9.70;;;5.68;;
31730;SDS011;18310;55.586;12.286;2023-09-18T17:15:44;7.35;;;5.60;;
31730;SDS011;18310;55.586;12.286;2023-09-18T17:18:49;8.23;;;4.80;;
31730;SDS011;18310;55.586;12.286;2023-09-18T17:21:57;13.27;;;5.38;;
31730;SDS011;18310;55.586;12.286;2023-09-18T17:25:06;11.50;;;5.40;;
31730;SDS011;18310;55.586;12.286;2023-09-18T17:28:11;8.52;;;5.13;;
31730;SDS011;18310;55.586;12.286;2023-09-18T17:31:16;10.38;;;5.68;;
31730;SDS011;18310;55.586;12.286;2023-09-18T17:34:22;9.80;;;5.28;;
31730;SDS011;18310;55.586;12.286;2023-09-18T17:37:25;9.13;;;5.25;;
31730;SDS011;18310;55.586;12.286;2023-09-18T17:40:29;9.37;;;4.80;;
31730;SDS011;18310;55.586;12.286;2023-09-18T17:43:32;8.90;;;4.88;;
31730;SDS011;18310;55.586;12.286;2023-09-18T17:46:36;9.57;;;4.97;;
31730;SDS011;18310;55.586;12.286;2023-09-18T17:49:40;8.38;;;4.43;;
31730;SDS011;18310;55.586;12.286;2023-09-18T17:52:45;7.45;;;4.65;;
31730;SDS011;18310;55.586;12.286;2023-09-18T17:55:48;11.30;;;5.13;;
31730;SDS011;18310;55.586;12.286;2023-09-18T17:58:51;7.38;;;4.70;;
31730;SDS011;18310;55.586;12.286;2023-09-18T18:01:55;8.43;;;4.85;;
31730;SDS011;18310;55.586;12.286;2023-09-18T18:05:00;7.13;;;4.88;;
31730;SDS011;18310;55.586;12.286;2023-09-18T18:08:26;10.18;;;4.30;;
31730;SDS011;18310;55.586;12.286;2023-09-18T18:11:36;7.45;;;4.50;;
31730;SDS011;18310;55.586;12.286;2023-09-18T18:14:40;9.13;;;4.72;;
31730;SDS011;18310;55.586;12.286;2023-09-18T18:17:43;8.65;;;5.05;;
31730;SDS011;18310;55.586;12.286;2023-09-18T18:20:46;8.40;;;4.50;;
31730;SDS011;18310;55.586;12.286;2023-09-18T18:23:51;7.70;;;4.90;;
31730;SDS011;18310;55.586;12.286;2023-09-18T18:26:54;10.20;;;4.55;;
31730;SDS011;18310;55.586;12.286;2023-09-18T18:29:58;8.82;;;4.70;;
31730;SDS011;18310;55.586;12.286;2023-09-18T18:33:01;8.63;;;4.47;;
31730;SDS011;18310;55.586;12.286;2023-09-18T18:36:06;6.75;;;4.30;;
31730;SDS011;18310;55.586;12.286;2023-09-18T18:39:11;5.57;;;3.90;;